Genco Loire — V7GN8 — position and weather

sailwx.info

Track history (hours):
 
Tides and Currents Weather Stations Pressure Air Temp Water Temp Dewpoint Dewpoint Depression Visibility Wind Speed Wind Dir Waves Ship Positions

Genco Loire

Last reported at 2014-Aug-23 21:04 UTC. Time now 2014-Sep-02 18:59 UTC.
Position N 31°07' E 032°18'.
Warning: this ship's position is 9 days out of date.

Length 190 m; draft 10.4 m.

MMSI: 538002760.

Date/timePositionNaut miles runAvg speedWind from/ knotsBaromVisibWave heightAir tempDewpointWater temp
2014-Aug-23 21:04N 31°07' E 032°18'5 9.5
2014-Aug-23 20:32N 31°12' E 032°18'94 5.5
2014-Aug-23 03:33N 32°27' E 031°12'1913.6
2014-Aug-23 02:08N 32°41' E 030°56'5414.0
2014-Aug-22 22:18N 33°21' E 030°13'22314.0
2014-Aug-22 06:19N 36°06' E 027°10'1114.3
2014-Aug-22 05:33N 36°14' E 027°01'1413.6
2014-Aug-22 04:33N 36°24' E 026°50'1913.7
2014-Aug-22 03:10N 36°38' E 026°34'813.7
2014-Aug-22 02:33N 36°44' E 026°27'1514.2
2014-Aug-22 01:32N 36°55' E 026°14'1414.5
2014-Aug-22 00:33N 37°07' E 026°05'1414.2
2014-Aug-21 23:33N 37°19' E 025°56'1413.5
2014-Aug-21 22:33N 37°30' E 025°47'1413.8
2014-Aug-21 21:34N 37°44' E 025°47'1513.6
2014-Aug-21 20:28N 37°59' E 025°47'1913.6
2014-Aug-21 19:04N 38°18' E 025°46'713.3
2014-Aug-21 18:33N 38°25' E 025°45'8513.6
2014-Aug-21 12:19N 39°49' E 025°47'1113.9
2014-Aug-21 11:32N 39°58' E 025°56'1212.8
2014-Aug-21 10:34N 40°02' E 026°11'1211.5
2014-Aug-21 09:32N 40°10' E 026°23'11811.7
2014-Aug-20 23:25N 40°55' E 028°46'7 8.5
2014-Aug-20 22:33N 40°57' E 028°56'  
2014-Aug-16 15:04N 45°07' E 036°33'0 0.0
2014-Aug-16 14:10N 45°07' E 036°33'0 0.0
2014-Aug-16 13:31N 45°07' E 036°33'0 0.0
2014-Aug-15 20:26N 45°07' E 036°33'0 0.0
2014-Aug-15 18:32N 45°07' E 036°33'0 0.0
2014-Aug-15 17:32N 45°07' E 036°33'0 0.0
2014-Aug-15 16:32N 45°07' E 036°33'0 0.0
2014-Aug-15 15:32N 45°07' E 036°33'0 0.0
2014-Aug-15 14:32N 45°07' E 036°33'0 0.0
2014-Aug-15 13:32N 45°07' E 036°33'0 0.0
2014-Aug-15 12:32N 45°07' E 036°33'0 0.0
2014-Aug-15 11:29N 45°07' E 036°33'0 0.0
2014-Aug-15 10:32N 45°07' E 036°33'0 0.0
2014-Aug-15 09:32N 45°07' E 036°33'0 0.0
2014-Aug-15 08:32N 45°07' E 036°33'0 0.0
2014-Aug-15 07:32N 45°07' E 036°33'0 0.0
2014-Aug-15 06:32N 45°07' E 036°33'  
Track history (hours):
 
Tides and Currents Weather Stations Pressure Air Temp Water Temp Dewpoint Dewpoint Depression Visibility Wind Speed Wind Dir Waves Ship Positions

Genco Loire

Last reported at 2014-Aug-23 21:04 UTC. Time now 2014-Sep-02 18:59 UTC.
Position N 31°07' E 032°18'.
Warning: this ship's position is 9 days out of date.

Length 190 m; draft 10.4 m.

MMSI: 538002760.

Date/timePositionNaut miles runAvg speedWind from/ knotsBaromVisibWave heightAir tempDewpointWater temp
2014-Aug-23 21:04N 31°07' E 032°18'5 9.5
2014-Aug-23 20:32N 31°12' E 032°18'94 5.5
2014-Aug-23 03:33N 32°27' E 031°12'1913.6
2014-Aug-23 02:08N 32°41' E 030°56'5414.0
2014-Aug-22 22:18N 33°21' E 030°13'22314.0
2014-Aug-22 06:19N 36°06' E 027°10'1114.3
2014-Aug-22 05:33N 36°14' E 027°01'1413.6
2014-Aug-22 04:33N 36°24' E 026°50'1913.7
2014-Aug-22 03:10N 36°38' E 026°34'813.7
2014-Aug-22 02:33N 36°44' E 026°27'1514.2
2014-Aug-22 01:32N 36°55' E 026°14'1414.5
2014-Aug-22 00:33N 37°07' E 026°05'1414.2
2014-Aug-21 23:33N 37°19' E 025°56'1413.5
2014-Aug-21 22:33N 37°30' E 025°47'1413.8
2014-Aug-21 21:34N 37°44' E 025°47'1513.6
2014-Aug-21 20:28N 37°59' E 025°47'1913.6
2014-Aug-21 19:04N 38°18' E 025°46'713.3
2014-Aug-21 18:33N 38°25' E 025°45'8513.6
2014-Aug-21 12:19N 39°49' E 025°47'1113.9
2014-Aug-21 11:32N 39°58' E 025°56'1212.8
2014-Aug-21 10:34N 40°02' E 026°11'1211.5
2014-Aug-21 09:32N 40°10' E 026°23'11811.7
2014-Aug-20 23:25N 40°55' E 028°46'7 8.5
2014-Aug-20 22:33N 40°57' E 028°56'  
2014-Aug-16 15:04N 45°07' E 036°33'0 0.0
2014-Aug-16 14:10N 45°07' E 036°33'0 0.0
2014-Aug-16 13:31N 45°07' E 036°33'0 0.0
2014-Aug-15 20:26N 45°07' E 036°33'0 0.0
2014-Aug-15 18:32N 45°07' E 036°33'0 0.0
2014-Aug-15 17:32N 45°07' E 036°33'0 0.0
2014-Aug-15 16:32N 45°07' E 036°33'0 0.0
2014-Aug-15 15:32N 45°07' E 036°33'0 0.0
2014-Aug-15 14:32N 45°07' E 036°33'0 0.0
2014-Aug-15 13:32N 45°07' E 036°33'0 0.0
2014-Aug-15 12:32N 45°07' E 036°33'0 0.0
2014-Aug-15 11:29N 45°07' E 036°33'0 0.0
2014-Aug-15 10:32N 45°07' E 036°33'0 0.0
2014-Aug-15 09:32N 45°07' E 036°33'0 0.0
2014-Aug-15 08:32N 45°07' E 036°33'0 0.0
2014-Aug-15 07:32N 45°07' E 036°33'0 0.0
2014-Aug-15 06:32N 45°07' E 036°33'  

Dump ship's entire track history